Forside
METAR-TAF:

METAR-TAF

Lufthavne :

Mason City Municipal Airport

Mason City, Iowa, USA

Breddekreds: 43-09-28N, længdekreds: 093-19-53W, højde: 370 m

Aktuelle vejr

Denne rapport blev lavet for 38 minutter siden, kl. 09:53 UTC
Vind 9 kt fra nord
Temperatur 3°C
Fugtighed 100%
Tryk 1019 hPa
Sigt: 16.1 km
skyfri

METAR: KMCW 230953Z AUTO 35009KT 10SM CLR 03/03 A3009 RMK AO2 SLP190 T00330028

Tid: 05:31 (10:31 UTC)

Vejrudsigter

Denne rapport blev lavet for 2 timer og 56 minutter siden, kl. 07:35 UTC
Foreløbig gælder fra 23 på 08 UTC til 24 på 06 UTC
Vind 18 kt fra nord
Sigt: 10 km
Overskyet i en højde af 1100 ft
Fra 23 på 0900 UTC
Vind 14 kt fra nordnordvest
Sigt: 10 km
Brudte skyer i en højde af 1600 ft
Fra 23 på 1100 UTC
Vind 12 kt fra nordnordvest
Sigt: 10 km
Spredte skyer i en højde af 11000 ft

TAF: KMCW 230735Z 2308/2406 35018KT P6SM OVC011 FM230900 34014KT P6SM BKN016 FM231100 34012KT P6SM SCT110

Vejrobservationer og prognoser fra mere end 4000 lufthavne (METAR og TAF).

De gule og røde prikker repræsenterer de meteorologiske stationer.

Flyt musen over at se navnet på stationen.

Så klik over at se vejr observationer og prognoser.

At skifte det kort: Klik på de grønne knapper med et sort kors for at zoome ind; på den grønne knap med en bindestreg for at zoome ud; eller på de grønne pile for tilstødende kort.


METAR-TAF: